Al Rawdah — V7VM8 — position and weather

sailwx.info

Track history (hours):
 
Tides and Currents Weather Stations Pressure Air Temp Water Temp Dewpoint Dewpoint Depression Visibility Wind Speed Wind Dir Waves Ship Positions

Al Rawdah

Last reported at 2015-Jan-27 00:33 UTC. Time now 2015-Jan-27 01:08 UTC.
Position N 43°15' E 007°12'.

Length 307 m; draft 13.2 m.

Type: Ship (hazmat cat A). MMSI: 538004160.

Date/timePositionNaut miles runAvg speedWind from/ knotsBaromVisibWave heightAir tempDewpointWater temp
2015-Jan-27 00:33N 43°15' E 007°12'1515.4
2015-Jan-26 23:33N 43°25' E 007°28'1716.0
2015-Jan-26 22:31N 43°35' E 007°47'3216.2
2015-Jan-26 20:32N 43°54' E 008°22'1717.1
2015-Jan-26 19:33N 44°04' E 008°41'1716.7
2015-Jan-26 18:33N 44°17' E 008°55'7 6.7
2015-Jan-26 17:32N 44°24' E 008°55'0 0.0
2015-Jan-26 16:32N 44°24' E 008°55'0 0.0
2015-Jan-26 15:32N 44°24' E 008°55'0 0.0
2015-Jan-26 14:32N 44°24' E 008°55'0 0.0
2015-Jan-26 13:32N 44°24' E 008°55'0 0.0
2015-Jan-26 12:32N 44°24' E 008°55'0 0.0
2015-Jan-26 11:32N 44°24' E 008°55'0 0.1
2015-Jan-26 10:26N 44°24' E 008°55'0 0.0
2015-Jan-26 09:32N 44°24' E 008°55'0 0.0
2015-Jan-26 08:32N 44°24' E 008°55'0 0.0
2015-Jan-26 07:26N 44°24' E 008°55'0 0.0
2015-Jan-26 06:32N 44°24' E 008°55'0 0.0
2015-Jan-26 05:32N 44°24' E 008°55'0 0.0
2015-Jan-26 04:26N 44°24' E 008°55'0 0.0
2015-Jan-26 03:32N 44°24' E 008°55'0 0.0
2015-Jan-26 02:32N 44°24' E 008°55'1 1.0
2015-Jan-26 01:33N 44°24' E 008°56'4 4.4
2015-Jan-26 00:33N 44°20' E 008°59'2 2.5
2015-Jan-25 23:33N 44°18' E 009°00'1 1.2
2015-Jan-25 22:33N 44°17' E 009°02'1 0.6
2015-Jan-25 21:33N 44°17' E 009°02'5 4.6
2015-Jan-25 20:33N 44°14' E 009°07'9 9.2
2015-Jan-25 19:33N 44°08' E 009°16'1111.5
2015-Jan-25 18:33N 43°60' E 009°27'9 9.5
2015-Jan-25 17:33N 43°55' E 009°39'1110.9
2015-Jan-25 16:33N 44°00' E 009°52'6 6.0
2015-Jan-25 15:32N 44°06' E 009°51'0 0.0
2015-Jan-25 14:32N 44°06' E 009°51'0 0.0
2015-Jan-25 13:32N 44°06' E 009°51'0 0.0
2015-Jan-25 12:32N 44°06' E 009°51'0 0.0
2015-Jan-25 11:32N 44°06' E 009°51'0 0.0
2015-Jan-25 10:32N 44°06' E 009°51'0 0.0
2015-Jan-25 09:32N 44°06' E 009°51'0 0.0
2015-Jan-25 08:32N 44°06' E 009°51'0 0.0
2015-Jan-25 07:30N 44°06' E 009°51'0 0.0
2015-Jan-25 06:29N 44°06' E 009°51'0 0.0
2015-Jan-25 05:32N 44°06' E 009°51'0 0.0
2015-Jan-25 04:32N 44°06' E 009°51'0 0.0
2015-Jan-25 03:32N 44°06' E 009°51'0 0.0
2015-Jan-25 02:32N 44°06' E 009°51'0 0.1
2015-Jan-25 01:32N 44°06' E 009°51'0 0.1
2015-Jan-25 00:32N 44°06' E 009°51'0 0.0
2015-Jan-24 23:32N 44°06' E 009°51'0 0.0
2015-Jan-24 22:32N 44°06' E 009°51'0 0.0
2015-Jan-24 21:32N 44°06' E 009°51'0 0.0
2015-Jan-24 20:32N 44°06' E 009°51'0 0.1
2015-Jan-24 19:32N 44°06' E 009°51'0 0.0
2015-Jan-24 18:32N 44°06' E 009°51'0 0.0
2015-Jan-24 17:32N 44°06' E 009°51'0 0.0
2015-Jan-24 16:32N 44°06' E 009°51'0 0.0
2015-Jan-24 15:32N 44°06' E 009°51'0 0.0
2015-Jan-24 14:32N 44°06' E 009°51'0 0.0
2015-Jan-24 13:32N 44°06' E 009°51'0 0.0
2015-Jan-24 12:32N 44°06' E 009°51'3 2.9
2015-Jan-24 11:33N 44°04' E 009°52'1010.0
2015-Jan-24 10:33N 43°54' E 009°55'1919.1
2015-Jan-24 09:33N 43°37' E 009°41'1615.9
2015-Jan-24 08:33N 43°30' E 010°00'1312.9
2015-Jan-24 07:33N 43°33' E 010°17'1 1.4
2015-Jan-24 06:33N 43°34' E 010°18'0 0.0
2015-Jan-24 05:33N 43°34' E 010°18'0 0.0
2015-Jan-24 04:33N 43°34' E 010°18'0 0.0
2015-Jan-24 03:33N 43°34' E 010°18'0 0.0
2015-Jan-24 02:33N 43°34' E 010°18'0 0.0
2015-Jan-24 01:30N 43°34' E 010°18'0 0.0
2015-Jan-24 00:33N 43°34' E 010°18'0 0.0
2015-Jan-23 23:33N 43°34' E 010°18'0 0.0
2015-Jan-23 22:33N 43°34' E 010°18'0 0.0
2015-Jan-23 21:33N 43°34' E 010°18'0 0.0
2015-Jan-23 20:33N 43°34' E 010°18'0 0.1
2015-Jan-23 19:33N 43°34' E 010°18'0 0.0
2015-Jan-23 18:33N 43°34' E 010°18'0 0.0
2015-Jan-23 17:33N 43°34' E 010°18'0 0.0
2015-Jan-23 16:30N 43°34' E 010°18'0 0.0
2015-Jan-23 15:33N 43°34' E 010°18'0 0.3
2015-Jan-23 14:33N 43°34' E 010°18'5 4.5
2015-Jan-23 13:33N 43°31' E 010°15'9 8.7
2015-Jan-23 12:33N 43°23' E 010°09'1313.0
2015-Jan-23 11:33N 43°10' E 010°06'1817.3
2015-Jan-23 10:32N 42°53' E 010°00'2518.6
2015-Jan-23 09:11N 42°29' E 009°51'3519.0
2015-Jan-23 07:21N 42°02' E 010°21'33718.8
2015-Jan-22 13:23N 38°07' E 015°36'75619.8
2015-Jan-20 23:17N 32°41' E 029°33'15219.3
2015-Jan-20 15:26N 31°33' E 032°13'  
Track history (hours):
 
Tides and Currents Weather Stations Pressure Air Temp Water Temp Dewpoint Dewpoint Depression Visibility Wind Speed Wind Dir Waves Ship Positions

Al Rawdah

Last reported at 2015-Jan-27 00:33 UTC. Time now 2015-Jan-27 01:08 UTC.
Position N 43°15' E 007°12'.

Length 307 m; draft 13.2 m.

Type: Ship (hazmat cat A). MMSI: 538004160.

Date/timePositionNaut miles runAvg speedWind from/ knotsBaromVisibWave heightAir tempDewpointWater temp
2015-Jan-27 00:33N 43°15' E 007°12'1515.4
2015-Jan-26 23:33N 43°25' E 007°28'1716.0
2015-Jan-26 22:31N 43°35' E 007°47'3216.2
2015-Jan-26 20:32N 43°54' E 008°22'1717.1
2015-Jan-26 19:33N 44°04' E 008°41'1716.7
2015-Jan-26 18:33N 44°17' E 008°55'7 6.7
2015-Jan-26 17:32N 44°24' E 008°55'0 0.0
2015-Jan-26 16:32N 44°24' E 008°55'0 0.0
2015-Jan-26 15:32N 44°24' E 008°55'0 0.0
2015-Jan-26 14:32N 44°24' E 008°55'0 0.0
2015-Jan-26 13:32N 44°24' E 008°55'0 0.0
2015-Jan-26 12:32N 44°24' E 008°55'0 0.0
2015-Jan-26 11:32N 44°24' E 008°55'0 0.1
2015-Jan-26 10:26N 44°24' E 008°55'0 0.0
2015-Jan-26 09:32N 44°24' E 008°55'0 0.0
2015-Jan-26 08:32N 44°24' E 008°55'0 0.0
2015-Jan-26 07:26N 44°24' E 008°55'0 0.0
2015-Jan-26 06:32N 44°24' E 008°55'0 0.0
2015-Jan-26 05:32N 44°24' E 008°55'0 0.0
2015-Jan-26 04:26N 44°24' E 008°55'0 0.0
2015-Jan-26 03:32N 44°24' E 008°55'0 0.0
2015-Jan-26 02:32N 44°24' E 008°55'1 1.0
2015-Jan-26 01:33N 44°24' E 008°56'4 4.4
2015-Jan-26 00:33N 44°20' E 008°59'2 2.5
2015-Jan-25 23:33N 44°18' E 009°00'1 1.2
2015-Jan-25 22:33N 44°17' E 009°02'1 0.6
2015-Jan-25 21:33N 44°17' E 009°02'5 4.6
2015-Jan-25 20:33N 44°14' E 009°07'9 9.2
2015-Jan-25 19:33N 44°08' E 009°16'1111.5
2015-Jan-25 18:33N 43°60' E 009°27'9 9.5
2015-Jan-25 17:33N 43°55' E 009°39'1110.9
2015-Jan-25 16:33N 44°00' E 009°52'6 6.0
2015-Jan-25 15:32N 44°06' E 009°51'0 0.0
2015-Jan-25 14:32N 44°06' E 009°51'0 0.0
2015-Jan-25 13:32N 44°06' E 009°51'0 0.0
2015-Jan-25 12:32N 44°06' E 009°51'0 0.0
2015-Jan-25 11:32N 44°06' E 009°51'0 0.0
2015-Jan-25 10:32N 44°06' E 009°51'0 0.0
2015-Jan-25 09:32N 44°06' E 009°51'0 0.0
2015-Jan-25 08:32N 44°06' E 009°51'0 0.0
2015-Jan-25 07:30N 44°06' E 009°51'0 0.0
2015-Jan-25 06:29N 44°06' E 009°51'0 0.0
2015-Jan-25 05:32N 44°06' E 009°51'0 0.0
2015-Jan-25 04:32N 44°06' E 009°51'0 0.0
2015-Jan-25 03:32N 44°06' E 009°51'0 0.0
2015-Jan-25 02:32N 44°06' E 009°51'0 0.1
2015-Jan-25 01:32N 44°06' E 009°51'0 0.1
2015-Jan-25 00:32N 44°06' E 009°51'0 0.0
2015-Jan-24 23:32N 44°06' E 009°51'0 0.0
2015-Jan-24 22:32N 44°06' E 009°51'0 0.0
2015-Jan-24 21:32N 44°06' E 009°51'0 0.0
2015-Jan-24 20:32N 44°06' E 009°51'0 0.1
2015-Jan-24 19:32N 44°06' E 009°51'0 0.0
2015-Jan-24 18:32N 44°06' E 009°51'0 0.0
2015-Jan-24 17:32N 44°06' E 009°51'0 0.0
2015-Jan-24 16:32N 44°06' E 009°51'0 0.0
2015-Jan-24 15:32N 44°06' E 009°51'0 0.0
2015-Jan-24 14:32N 44°06' E 009°51'0 0.0
2015-Jan-24 13:32N 44°06' E 009°51'0 0.0
2015-Jan-24 12:32N 44°06' E 009°51'3 2.9
2015-Jan-24 11:33N 44°04' E 009°52'1010.0
2015-Jan-24 10:33N 43°54' E 009°55'1919.1
2015-Jan-24 09:33N 43°37' E 009°41'1615.9
2015-Jan-24 08:33N 43°30' E 010°00'1312.9
2015-Jan-24 07:33N 43°33' E 010°17'1 1.4
2015-Jan-24 06:33N 43°34' E 010°18'0 0.0
2015-Jan-24 05:33N 43°34' E 010°18'0 0.0
2015-Jan-24 04:33N 43°34' E 010°18'0 0.0
2015-Jan-24 03:33N 43°34' E 010°18'0 0.0
2015-Jan-24 02:33N 43°34' E 010°18'0 0.0
2015-Jan-24 01:30N 43°34' E 010°18'0 0.0
2015-Jan-24 00:33N 43°34' E 010°18'0 0.0
2015-Jan-23 23:33N 43°34' E 010°18'0 0.0
2015-Jan-23 22:33N 43°34' E 010°18'0 0.0
2015-Jan-23 21:33N 43°34' E 010°18'0 0.0
2015-Jan-23 20:33N 43°34' E 010°18'0 0.1
2015-Jan-23 19:33N 43°34' E 010°18'0 0.0
2015-Jan-23 18:33N 43°34' E 010°18'0 0.0
2015-Jan-23 17:33N 43°34' E 010°18'0 0.0
2015-Jan-23 16:30N 43°34' E 010°18'0 0.0
2015-Jan-23 15:33N 43°34' E 010°18'0 0.3
2015-Jan-23 14:33N 43°34' E 010°18'5 4.5
2015-Jan-23 13:33N 43°31' E 010°15'9 8.7
2015-Jan-23 12:33N 43°23' E 010°09'1313.0
2015-Jan-23 11:33N 43°10' E 010°06'1817.3
2015-Jan-23 10:32N 42°53' E 010°00'2518.6
2015-Jan-23 09:11N 42°29' E 009°51'3519.0
2015-Jan-23 07:21N 42°02' E 010°21'33718.8
2015-Jan-22 13:23N 38°07' E 015°36'75619.8
2015-Jan-20 23:17N 32°41' E 029°33'15219.3
2015-Jan-20 15:26N 31°33' E 032°13'  

Dump ship's entire track history